sensor_id;sensor_type;location;lat;lon;timestamp;P1;P2;P0
68198;PMS7003;55021;51.554;17.044;2023-02-28T00:06:41;56.50;48.75;30.00
68198;PMS7003;55021;51.554;17.044;2023-02-28T00:21:43;70.25;57.50;34.75
68198;PMS7003;55021;51.554;17.044;2023-02-28T00:36:46;63.75;51.00;32.75
68198;PMS7003;55021;51.554;17.044;2023-02-28T00:51:48;99.00;73.33;46.00
68198;PMS7003;55021;51.554;17.044;2023-02-28T01:06:51;137.75;112.75;66.50
68198;PMS7003;55021;51.554;17.044;2023-02-28T01:21:54;77.75;59.25;37.50
68198;PMS7003;55021;51.554;17.044;2023-02-28T01:36:56;85.75;59.75;36.00
68198;PMS7003;55021;51.554;17.044;2023-02-28T01:51:59;79.25;59.50;35.50
68198;PMS7003;55021;51.554;17.044;2023-02-28T02:07:02;66.00;50.00;32.25
68198;PMS7003;55021;51.554;17.044;2023-02-28T02:37:39;67.75;52.75;33.50
68198;PMS7003;55021;51.554;17.044;2023-02-28T02:52:48;59.00;49.75;33.00
68198;PMS7003;55021;51.554;17.044;2023-02-28T03:07:56;70.00;52.75;33.75
68198;PMS7003;55021;51.554;17.044;2023-02-28T03:23:02;71.75;54.75;34.25
68198;PMS7003;55021;51.554;17.044;2023-02-28T03:38:28;56.25;46.00;28.25
68198;PMS7003;55021;51.554;17.044;2023-02-28T03:53:45;55.00;42.75;25.25
68198;PMS7003;55021;51.554;17.044;2023-02-28T04:08:58;54.75;46.50;27.00
68198;PMS7003;55021;51.554;17.044;2023-02-28T04:24:04;57.50;46.75;26.00
68198;PMS7003;55021;51.554;17.044;2023-02-28T04:39:33;48.25;43.75;25.50
68198;PMS7003;55021;51.554;17.044;2023-02-28T04:54:42;54.25;46.50;27.50
68198;PMS7003;55021;51.554;17.044;2023-02-28T05:09:47;55.00;47.00;27.00
68198;PMS7003;55021;51.554;17.044;2023-02-28T05:24:56;58.00;48.75;26.50
68198;PMS7003;55021;51.554;17.044;2023-02-28T05:55:11;61.00;45.75;28.50
68198;PMS7003;55021;51.554;17.044;2023-02-28T06:10:18;55.00;46.50;30.25
68198;PMS7003;55021;51.554;17.044;2023-02-28T06:25:21;76.00;56.25;33.50
68198;PMS7003;55021;51.554;17.044;2023-02-28T06:40:23;64.75;53.75;35.25
68198;PMS7003;55021;51.554;17.044;2023-02-28T06:55:26;73.00;55.25;34.25
68198;PMS7003;55021;51.554;17.044;2023-02-28T07:10:29;71.75;59.25;36.25
68198;PMS7003;55021;51.554;17.044;2023-02-28T07:25:33;73.50;58.75;36.75
68198;PMS7003;55021;51.554;17.044;2023-02-28T07:40:38;77.50;61.25;38.00
68198;PMS7003;55021;51.554;17.044;2023-02-28T07:55:41;85.00;64.00;40.75
68198;PMS7003;55021;51.554;17.044;2023-02-28T08:10:44;80.00;59.00;37.25
68198;PMS7003;55021;51.554;17.044;2023-02-28T08:25:52;86.00;63.25;38.75
68198;PMS7003;55021;51.554;17.044;2023-02-28T08:40:58;75.50;58.75;38.00
68198;PMS7003;55021;51.554;17.044;2023-02-28T08:56:02;83.25;60.50;37.00
68198;PMS7003;55021;51.554;17.044;2023-02-28T09:11:06;82.50;60.25;37.00
68198;PMS7003;55021;51.554;17.044;2023-02-28T09:26:12;60.75;49.75;29.00
68198;PMS7003;55021;51.554;17.044;2023-02-28T09:41:16;41.00;34.50;20.75
68198;PMS7003;55021;51.554;17.044;2023-02-28T09:56:22;43.25;37.00;21.50
68198;PMS7003;55021;51.554;17.044;2023-02-28T10:11:29;64.75;53.00;31.25
68198;PMS7003;55021;51.554;17.044;2023-02-28T10:26:36;47.75;34.00;20.50
68198;PMS7003;55021;51.554;17.044;2023-02-28T10:41:39;38.00;33.75;19.25
68198;PMS7003;55021;51.554;17.044;2023-02-28T10:56:46;86.25;66.00;39.00
68198;PMS7003;55021;51.554;17.044;2023-02-28T11:12:22;32.50;29.25;16.00
68198;PMS7003;55021;51.554;17.044;2023-02-28T11:27:40;36.50;35.25;18.00
68198;PMS7003;55021;51.554;17.044;2023-02-28T11:42:50;39.75;31.50;19.25
68198;PMS7003;55021;51.554;17.044;2023-02-28T11:58:09;37.00;30.00;18.75
68198;PMS7003;55021;51.554;17.044;2023-02-28T12:13:23;35.25;28.75;16.00
68198;PMS7003;55021;51.554;17.044;2023-02-28T12:28:31;30.75;26.75;14.75
68198;PMS7003;55021;51.554;17.044;2023-02-28T12:43:39;47.50;35.50;20.00
68198;PMS7003;55021;51.554;17.044;2023-02-28T12:58:47;33.75;29.50;16.75
68198;PMS7003;55021;51.554;17.044;2023-02-28T13:13:57;44.50;33.75;20.25
68198;PMS7003;55021;51.554;17.044;2023-02-28T13:29:01;33.50;33.00;17.25
68198;PMS7003;55021;51.554;17.044;2023-02-28T13:44:23;47.00;39.00;25.00
68198;PMS7003;55021;51.554;17.044;2023-02-28T13:59:27;41.75;36.00;20.75
68198;PMS7003;55021;51.554;17.044;2023-02-28T14:46:00;51.25;41.25;24.00
68198;PMS7003;55021;51.554;17.044;2023-02-28T15:01:05;46.00;42.75;25.50
68198;PMS7003;55021;51.554;17.044;2023-02-28T15:16:19;43.00;35.50;20.25
68198;PMS7003;55021;51.554;17.044;2023-02-28T15:31:26;52.75;41.50;24.75
68198;PMS7003;55021;51.554;17.044;2023-02-28T15:46:30;57.25;44.00;24.50
68198;PMS7003;55021;51.554;17.044;2023-02-28T16:01:33;44.75;38.50;23.50
68198;PMS7003;55021;51.554;17.044;2023-02-28T16:16:41;50.25;42.50;23.50
68198;PMS7003;55021;51.554;17.044;2023-02-28T16:31:45;45.00;38.00;25.00
68198;PMS7003;55021;51.554;17.044;2023-02-28T16:46:47;57.75;43.25;22.75
68198;PMS7003;55021;51.554;17.044;2023-02-28T17:01:52;48.00;45.00;23.25
68198;PMS7003;55021;51.554;17.044;2023-02-28T17:16:55;63.75;53.00;31.50
68198;PMS7003;55021;51.554;17.044;2023-02-28T17:31:58;56.50;42.25;24.75
68198;PMS7003;55021;51.554;17.044;2023-02-28T17:47:01;78.75;53.50;32.25
68198;PMS7003;55021;51.554;17.044;2023-02-28T18:02:06;83.50;59.00;35.00
68198;PMS7003;55021;51.554;17.044;2023-02-28T18:17:08;74.50;57.00;36.00
68198;PMS7003;55021;51.554;17.044;2023-02-28T18:32:42;93.67;69.33;43.67
68198;PMS7003;55021;51.554;17.044;2023-02-28T18:47:44;84.00;62.00;36.00
68198;PMS7003;55021;51.554;17.044;2023-02-28T19:02:47;88.75;63.75;37.50
68198;PMS7003;55021;51.554;17.044;2023-02-28T19:17:50;82.00;60.25;36.75
68198;PMS7003;55021;51.554;17.044;2023-02-28T19:32:52;80.00;60.25;36.25
68198;PMS7003;55021;51.554;17.044;2023-02-28T19:47:55;77.00;60.00;36.50
68198;PMS7003;55021;51.554;17.044;2023-02-28T20:02:57;94.33;67.00;39.33
68198;PMS7003;55021;51.554;17.044;2023-02-28T20:18:00;64.00;52.25;31.00
68198;PMS7003;55021;51.554;17.044;2023-02-28T20:33:02;79.00;59.75;32.75
68198;PMS7003;55021;51.554;17.044;2023-02-28T20:48:05;80.50;60.00;37.25
68198;PMS7003;55021;51.554;17.044;2023-02-28T21:03:08;80.50;58.75;37.00
68198;PMS7003;55021;51.554;17.044;2023-02-28T21:18:11;93.50;67.25;38.75
68198;PMS7003;55021;51.554;17.044;2023-02-28T21:33:13;85.00;58.00;34.75
68198;PMS7003;55021;51.554;17.044;2023-02-28T21:48:15;100.67;69.33;40.00
68198;PMS7003;55021;51.554;17.044;2023-02-28T22:03:18;102.33;75.00;44.67
68198;PMS7003;55021;51.554;17.044;2023-02-28T22:18:20;102.67;74.00;45.67
68198;PMS7003;55021;51.554;17.044;2023-02-28T22:33:23;85.67;68.67;43.33
68198;PMS7003;55021;51.554;17.044;2023-02-28T22:48:26;93.33;72.00;44.00
68198;PMS7003;55021;51.554;17.044;2023-02-28T23:03:29;90.33;68.00;42.00
68198;PMS7003;55021;51.554;17.044;2023-02-28T23:18:32;99.00;74.67;45.33
68198;PMS7003;55021;51.554;17.044;2023-02-28T23:33:34;111.00;84.00;50.67
68198;PMS7003;55021;51.554;17.044;2023-02-28T23:48:38;116.67;84.00;54.00
